Time;durP1;ratioP1;P1;durP2;ratioP2;P2;SDS_P1;SDS_P2;PMS_P1;PMS_P2;Temp;Humidity;BMP_temperature;BMP_pressure;BME280_temperature;BME280_humidity;BME280_pressure;Samples;Min_cycle;Max_cycle;Signal;HPM_P1;HPM_P2
2023/05/29 00:00:08;;;;;;;;;;;13.20;99.90;;;;;;4992632;28;19926;-66
2023/05/29 00:02:44;;;;;;;;;;;13.20;99.90;;;;;;4973030;28;19933;-66
2023/05/29 00:05:12;;;;;;;;;;;13.10;99.90;;;;;;4986813;28;20305;-66
2023/05/29 00:07:44;;;;;;;;;;;13.10;99.90;;;;;;4973347;28;20413;-66
2023/05/29 00:10:16;;;;;;;;;;;13.10;99.90;;;;;;4975945;28;19934;-66
2023/05/29 00:12:48;;;;;;;;;;;13.00;99.90;;;;;;4970359;28;19933;-66
2023/05/29 00:15:20;;;;;;;;;;;13.00;99.90;;;;;;4959639;28;19926;-66
2023/05/29 00:17:52;;;;;;;;;;;13.00;99.90;;;;;;4989908;28;20017;-66
2023/05/29 00:20:24;;;;;;;;;;;13.00;99.90;;;;;;4968579;28;19926;-66
2023/05/29 00:22:51;;;;;;;;;;;13.00;99.90;;;;;;4977169;28;19930;-66
2023/05/29 00:25:22;;;;;;;;;;;12.90;99.90;;;;;;4985844;28;19930;-66
2023/05/29 00:27:54;;;;;;;;;;;12.80;99.90;;;;;;4981260;28;20386;-66
2023/05/29 00:30:26;;;;;;;;;;;12.80;99.90;;;;;;4967693;28;19930;-66
2023/05/29 00:32:53;;;;;;;;;;;12.70;99.90;;;;;;4983020;28;20436;-66
2023/05/29 00:35:25;;;;;;;;;;;12.60;99.90;;;;;;4985533;28;19934;-65
2023/05/29 00:37:57;;;;;;;;;;;12.50;99.90;;;;;;4972004;28;19930;-66
2023/05/29 00:40:24;;;;;;;;;;;12.50;99.90;;;;;;4987781;28;20353;-66
2023/05/29 00:42:56;;;;;;;;;;;12.40;99.90;;;;;;4970975;28;19929;-66
2023/05/29 00:45:28;;;;;;;;;;;12.40;99.90;;;;;;4961335;28;19933;-65
2023/05/29 00:48:00;;;;;;;;;;;12.40;99.90;;;;;;4985215;28;19926;-66
2023/05/29 00:50:27;;;;;;;;;;;12.30;99.90;;;;;;4950641;28;20012;-66
2023/05/29 00:53:02;;;;;;;;;;;12.30;99.90;;;;;;4985460;28;19926;-66
2023/05/29 00:55:29;;;;;;;;;;;12.20;99.90;;;;;;4965286;28;19929;-66
2023/05/29 00:58:01;;;;;;;;;;;12.20;99.90;;;;;;4983466;28;20408;-66
2023/05/29 01:00:34;;;;;;;;;;;12.10;99.90;;;;;;4973999;28;20360;-66
2023/05/29 01:03:07;;;;;;;;;;;12.10;99.90;;;;;;4984028;28;19930;-66
2023/05/29 01:05:40;;;;;;;;;;;12.10;99.90;;;;;;4968968;28;19937;-66
2023/05/29 01:08:12;;;;;;;;;;;12.00;99.90;;;;;;4985010;28;20009;-66
2023/05/29 01:10:38;;;;;;;;;;;12.00;99.90;;;;;;4967152;28;19972;-65
2023/05/29 01:13:19;;;;;;;;;;;11.90;99.90;;;;;;4984213;28;19948;-66
2023/05/29 01:15:50;;;;;;;;;;;11.90;99.90;;;;;;4967011;28;19933;-66
2023/05/29 01:18:27;;;;;;;;;;;11.90;99.90;;;;;;4961908;28;19980;-66
2023/05/29 01:21:26;;;;;;;;;;;11.90;99.90;;;;;;4967879;28;19930;-66
2023/05/29 01:24:01;;;;;;;;;;;11.90;99.90;;;;;;4980893;28;19932;-66
2023/05/29 01:26:33;;;;;;;;;;;11.90;99.90;;;;;;4969248;28;19930;-66
2023/05/29 01:29:07;;;;;;;;;;;11.90;99.90;;;;;;4980925;28;19936;-66
2023/05/29 01:31:35;;;;;;;;;;;11.80;99.90;;;;;;4986636;28;20386;-66
2023/05/29 01:34:07;;;;;;;;;;;11.80;99.90;;;;;;4982588;28;19934;-66
2023/05/29 01:36:42;;;;;;;;;;;11.80;99.90;;;;;;4983022;28;19949;-66
2023/05/29 01:39:10;;;;;;;;;;;11.80;99.90;;;;;;4979696;28;19958;-66
2023/05/29 01:41:43;;;;;;;;;;;11.70;99.90;;;;;;4963631;28;19926;-65
2023/05/29 01:44:11;;;;;;;;;;;11.70;99.90;;;;;;4978059;28;19966;-66
2023/05/29 01:46:45;;;;;;;;;;;11.70;99.90;;;;;;4971488;28;20458;-66
2023/05/29 01:49:12;;;;;;;;;;;11.60;99.90;;;;;;4978897;28;19948;-66
2023/05/29 01:51:44;;;;;;;;;;;11.60;99.90;;;;;;4982306;28;20735;-66
2023/05/29 01:54:16;;;;;;;;;;;11.60;99.90;;;;;;4973113;28;19926;-65
2023/05/29 01:56:49;;;;;;;;;;;11.50;99.90;;;;;;4982956;28;19930;-66
2023/05/29 01:59:21;;;;;;;;;;;11.50;99.90;;;;;;4982508;28;19980;-66
2023/05/29 02:01:53;;;;;;;;;;;11.40;99.90;;;;;;4979056;28;20021;-66
2023/05/29 02:04:25;;;;;;;;;;;11.50;99.90;;;;;;4973236;28;19941;-66
2023/05/29 02:06:52;;;;;;;;;;;11.40;99.90;;;;;;4974713;28;19926;-66
2023/05/29 02:09:25;;;;;;;;;;;11.40;99.90;;;;;;4981287;28;19957;-66
2023/05/29 02:11:57;;;;;;;;;;;11.50;99.90;;;;;;4976325;28;20508;-66
2023/05/29 02:14:28;;;;;;;;;;;11.50;99.90;;;;;;4972513;28;20016;-66
2023/05/29 02:17:01;;;;;;;;;;;11.50;99.90;;;;;;4986085;28;20404;-66
2023/05/29 02:19:27;;;;;;;;;;;11.50;99.90;;;;;;4968838;28;20380;-66
2023/05/29 02:22:00;;;;;;;;;;;11.40;99.90;;;;;;4981364;28;20025;-65
2023/05/29 02:24:31;;;;;;;;;;;11.40;99.90;;;;;;4981326;28;19930;-66
2023/05/29 02:27:00;;;;;;;;;;;11.30;99.90;;;;;;4977410;28;20028;-66
2023/05/29 02:29:33;;;;;;;;;;;11.30;99.90;;;;;;4968927;28;19929;-66
2023/05/29 02:32:05;;;;;;;;;;;11.30;99.90;;;;;;4976558;28;19926;-66
2023/05/29 02:34:37;;;;;;;;;;;11.30;99.90;;;;;;4973851;28;19926;-66
2023/05/29 02:37:09;;;;;;;;;;;11.30;99.90;;;;;;4986305;28;20012;-66
2023/05/29 02:39:41;;;;;;;;;;;11.30;99.90;;;;;;4971341;28;19933;-66
2023/05/29 02:42:08;;;;;;;;;;;11.30;99.90;;;;;;4967867;28;19930;-66
2023/05/29 02:44:40;;;;;;;;;;;11.20;99.90;;;;;;4980677;28;19934;-66
2023/05/29 02:47:12;;;;;;;;;;;11.20;99.90;;;;;;4972532;28;19936;-66
2023/05/29 02:49:38;;;;;;;;;;;11.20;99.90;;;;;;4961720;28;20026;-66
2023/05/29 02:52:10;;;;;;;;;;;11.20;99.90;;;;;;4986925;22;19933;-63
2023/05/29 02:54:42;;;;;;;;;;;11.10;99.90;;;;;;4949485;28;19933;-63
2023/05/29 02:57:13;;;;;;;;;;;11.00;99.90;;;;;;4952505;28;20292;-63
2023/05/29 02:59:45;;;;;;;;;;;10.90;99.90;;;;;;4952064;28;19936;-63
2023/05/29 03:02:17;;;;;;;;;;;10.90;99.90;;;;;;4951377;28;19937;-63
2023/05/29 03:04:50;;;;;;;;;;;10.80;99.90;;;;;;4937670;28;19958;-63
2023/05/29 03:07:22;;;;;;;;;;;10.70;99.90;;;;;;4967531;28;19984;-63
2023/05/29 03:09:56;;;;;;;;;;;10.70;99.90;;;;;;4948856;28;19927;-63
2023/05/29 03:12:29;;;;;;;;;;;10.70;99.90;;;;;;4952258;28;20296;-63
2023/05/29 03:15:00;;;;;;;;;;;10.70;99.90;;;;;;4937806;28;20009;-63
2023/05/29 03:17:32;;;;;;;;;;;10.70;99.90;;;;;;4951441;28;19926;-63
2023/05/29 03:20:10;;;;;;;;;;;10.70;99.90;;;;;;4933761;28;19958;-63
2023/05/29 03:22:37;;;;;;;;;;;10.60;99.90;;;;;;4954069;28;19930;-63
2023/05/29 03:25:09;;;;;;;;;;;10.60;99.90;;;;;;4945294;28;19930;-62
2023/05/29 03:27:42;;;;;;;;;;;10.60;99.90;;;;;;4953441;28;20291;-63
2023/05/29 03:30:12;;;;;;;;;;;10.50;99.90;;;;;;4947690;28;19932;-63
2023/05/29 03:32:44;;;;;;;;;;;10.50;99.90;;;;;;4949000;28;19930;-63
2023/05/29 03:35:17;;;;;;;;;;;10.50;99.90;;;;;;4953235;28;20446;-63
2023/05/29 03:37:49;;;;;;;;;;;10.50;99.90;;;;;;4949521;28;19935;-63
2023/05/29 03:40:20;;;;;;;;;;;10.50;99.90;;;;;;4938868;28;19937;-63
2023/05/29 03:42:52;;;;;;;;;;;10.50;99.90;;;;;;4947200;28;20305;-63
2023/05/29 03:45:19;;;;;;;;;;;10.50;99.90;;;;;;4945431;28;19931;-63
2023/05/29 03:47:51;;;;;;;;;;;10.50;99.90;;;;;;4959816;28;19926;-63
2023/05/29 03:50:23;;;;;;;;;;;10.50;99.90;;;;;;4945515;28;19926;-63
2023/05/29 03:52:54;;;;;;;;;;;10.40;99.90;;;;;;4933274;28;19934;-63
2023/05/29 03:55:27;;;;;;;;;;;10.40;99.90;;;;;;4963258;28;19958;-63
2023/05/29 03:57:59;;;;;;;;;;;10.40;99.90;;;;;;4947457;28;19926;-63
2023/05/29 04:00:32;;;;;;;;;;;10.50;99.90;;;;;;4938647;28;19966;-63
2023/05/29 04:03:03;;;;;;;;;;;10.50;99.90;;;;;;4951544;28;19933;-64
2023/05/29 04:05:35;;;;;;;;;;;10.50;99.90;;;;;;4943914;28;19937;-63
2023/05/29 04:08:10;;;;;;;;;;;10.50;99.90;;;;;;4944150;28;19933;-63
2023/05/29 04:10:37;;;;;;;;;;;10.50;99.90;;;;;;4953186;28;19952;-63
2023/05/29 04:13:09;;;;;;;;;;;10.60;99.90;;;;;;4941970;28;20013;-63
2023/05/29 04:15:42;;;;;;;;;;;10.60;99.90;;;;;;4952344;28;19930;-63
2023/05/29 04:18:16;;;;;;;;;;;10.60;99.90;;;;;;4938435;28;19926;-63
2023/05/29 04:20:47;;;;;;;;;;;10.60;99.90;;;;;;4952431;28;20458;-63
2023/05/29 04:23:20;;;;;;;;;;;10.70;99.90;;;;;;4963519;28;19942;-63
2023/05/29 04:25:52;;;;;;;;;;;10.70;99.90;;;;;;4946892;28;19933;-63
2023/05/29 04:28:24;;;;;;;;;;;10.80;99.90;;;;;;4946924;28;19926;-63
2023/05/29 04:30:56;;;;;;;;;;;10.80;99.90;;;;;;4943942;28;19931;-63
2023/05/29 04:33:29;;;;;;;;;;;10.80;99.90;;;;;;4960347;28;19930;-63
2023/05/29 04:36:03;;;;;;;;;;;10.90;99.90;;;;;;4940275;28;20383;-63
2023/05/29 04:38:31;;;;;;;;;;;10.90;99.90;;;;;;4945260;28;19934;-63
2023/05/29 04:41:03;;;;;;;;;;;10.90;99.90;;;;;;4944987;28;19927;-63
2023/05/29 04:43:36;;;;;;;;;;;11.00;99.90;;;;;;4955420;28;20398;-63
2023/05/29 04:46:12;;;;;;;;;;;11.00;99.90;;;;;;4947842;28;19933;-63
2023/05/29 04:48:44;;;;;;;;;;;11.00;99.90;;;;;;4948087;28;19981;-63
2023/05/29 04:51:16;;;;;;;;;;;11.10;99.90;;;;;;4967071;28;19926;-63
2023/05/29 04:53:43;;;;;;;;;;;11.10;99.90;;;;;;4955871;28;19926;-63
2023/05/29 04:56:10;;;;;;;;;;;11.10;99.90;;;;;;4963793;28;19934;-63
2023/05/29 04:58:37;;;;;;;;;;;11.20;99.90;;;;;;4955406;28;20638;-63
2023/05/29 05:01:04;;;;;;;;;;;11.20;99.90;;;;;;4948001;28;19933;-63
2023/05/29 05:03:37;;;;;;;;;;;11.30;99.90;;;;;;4946518;28;20021;-63
2023/05/29 05:06:09;;;;;;;;;;;11.30;99.90;;;;;;4947471;28;19978;-63
2023/05/29 05:08:41;;;;;;;;;;;11.30;99.90;;;;;;4965259;28;19933;-63
2023/05/29 05:11:13;;;;;;;;;;;11.30;99.90;;;;;;4933733;28;20025;-63
2023/05/29 05:13:46;;;;;;;;;;;11.30;99.90;;;;;;4961389;28;20326;-63
2023/05/29 05:16:13;;;;;;;;;;;11.30;99.90;;;;;;4949396;28;19930;-63
2023/05/29 05:18:44;;;;;;;;;;;11.30;99.90;;;;;;4961547;28;19927;-63
2023/05/29 05:21:17;;;;;;;;;;;11.30;99.90;;;;;;4956960;28;19962;-64
2023/05/29 05:23:49;;;;;;;;;;;11.30;99.90;;;;;;4936129;28;19993;-63
2023/05/29 05:26:16;;;;;;;;;;;11.40;99.90;;;;;;4948181;28;19988;-63
2023/05/29 05:28:47;;;;;;;;;;;11.40;99.90;;;;;;4958227;28;19926;-63
2023/05/29 05:31:22;;;;;;;;;;;11.50;99.90;;;;;;4942466;28;19931;-63
2023/05/29 05:33:54;;;;;;;;;;;11.50;99.90;;;;;;4950120;28;19926;-63
2023/05/29 05:36:26;;;;;;;;;;;11.50;99.90;;;;;;4940871;28;19958;-63
2023/05/29 05:39:05;;;;;;;;;;;11.60;99.90;;;;;;4965132;28;20065;-63
2023/05/29 05:41:37;;;;;;;;;;;11.60;99.90;;;;;;4952843;28;20382;-65
2023/05/29 05:44:11;;;;;;;;;;;11.70;99.90;;;;;;4960753;28;19997;-63
2023/05/29 05:46:44;;;;;;;;;;;11.70;99.90;;;;;;4953333;29;19927;-63
2023/05/29 05:49:17;;;;;;;;;;;11.80;99.90;;;;;;4954059;28;19952;-63
2023/05/29 05:51:50;;;;;;;;;;;11.90;99.90;;;;;;4949045;28;20403;-63
2023/05/29 05:54:22;;;;;;;;;;;12.00;99.90;;;;;;4944665;28;20334;-63
2023/05/29 05:56:54;;;;;;;;;;;12.00;99.90;;;;;;4971361;28;19926;-63
2023/05/29 05:59:25;;;;;;;;;;;12.00;99.90;;;;;;4951820;28;19927;-63
2023/05/29 06:01:58;;;;;;;;;;;12.10;99.90;;;;;;4962216;28;19945;-63
2023/05/29 06:04:30;;;;;;;;;;;12.10;99.90;;;;;;4950620;28;19930;-63
2023/05/29 06:07:01;;;;;;;;;;;12.20;99.90;;;;;;4965119;28;19927;-63
2023/05/29 06:09:34;;;;;;;;;;;12.30;99.90;;;;;;4943046;28;20413;-63
2023/05/29 06:12:07;;;;;;;;;;;12.30;99.90;;;;;;4941018;28;19937;-63
2023/05/29 06:14:48;;;;;;;;;;;12.70;99.90;;;;;;4938612;28;19981;-63
2023/05/29 06:17:21;;;;;;;;;;;13.00;99.90;;;;;;4963280;28;20350;-63
2023/05/29 06:19:53;;;;;;;;;;;13.10;99.90;;;;;;4950498;28;19926;-63
2023/05/29 06:22:25;;;;;;;;;;;13.30;99.90;;;;;;4951396;28;20419;-63
2023/05/29 06:24:57;;;;;;;;;;;13.30;99.90;;;;;;4962080;28;19931;-63
2023/05/29 06:27:29;;;;;;;;;;;13.30;99.90;;;;;;4954301;28;19936;-63
2023/05/29 06:30:02;;;;;;;;;;;13.40;99.90;;;;;;4950294;28;19926;-63
2023/05/29 06:32:29;;;;;;;;;;;13.40;99.90;;;;;;4951791;28;19926;-63
2023/05/29 06:35:03;;;;;;;;;;;13.50;99.90;;;;;;4952243;28;20021;-63
2023/05/29 06:37:30;;;;;;;;;;;13.50;99.90;;;;;;4939538;28;20481;-63
2023/05/29 06:40:04;;;;;;;;;;;13.60;99.90;;;;;;4965509;28;20328;-63
2023/05/29 06:42:36;;;;;;;;;;;13.70;99.90;;;;;;4947319;28;20499;-63
2023/05/29 06:45:13;;;;;;;;;;;13.80;99.90;;;;;;4945219;28;19933;-63
2023/05/29 06:47:45;;;;;;;;;;;13.90;99.90;;;;;;4954693;28;19926;-63
2023/05/29 06:50:12;;;;;;;;;;;14.00;99.90;;;;;;4949604;28;20506;-63
2023/05/29 06:52:44;;;;;;;;;;;14.20;99.90;;;;;;4939113;28;20021;-63
2023/05/29 06:55:26;;;;;;;;;;;14.30;99.90;;;;;;4950551;28;19981;-63
2023/05/29 06:57:58;;;;;;;;;;;14.50;99.90;;;;;;4934969;28;20368;-63
2023/05/29 07:00:30;;;;;;;;;;;14.60;99.90;;;;;;4938844;28;19934;-63
2023/05/29 07:03:20;;;;;;;;;;;14.70;99.90;;;;;;4953453;28;19926;-63
2023/05/29 07:05:52;;;;;;;;;;;14.90;99.90;;;;;;4954225;28;20425;-64
2023/05/29 07:08:19;;;;;;;;;;;15.10;99.90;;;;;;4953131;28;19926;-63
2023/05/29 07:10:52;;;;;;;;;;;15.30;99.90;;;;;;4955231;28;20462;-63
2023/05/29 07:13:20;;;;;;;;;;;15.40;99.90;;;;;;4938371;28;20422;-63
2023/05/29 07:15:52;;;;;;;;;;;15.60;99.90;;;;;;4959743;28;19933;-63
2023/05/29 07:18:31;;;;;;;;;;;15.80;99.90;;;;;;4948668;28;20423;-64
2023/05/29 07:21:03;;;;;;;;;;;16.00;99.90;;;;;;4948685;28;20400;-63
2023/05/29 07:23:35;;;;;;;;;;;16.20;99.90;;;;;;4939652;28;19926;-63
2023/05/29 07:26:08;;;;;;;;;;;16.40;99.90;;;;;;4961100;28;19931;-64
2023/05/29 07:28:41;;;;;;;;;;;16.50;99.90;;;;;;4951925;28;19981;-64
2023/05/29 07:31:12;;;;;;;;;;;16.70;99.90;;;;;;4941426;28;20013;-64
2023/05/29 07:33:46;;;;;;;;;;;16.80;99.90;;;;;;4955226;28;20403;-64
2023/05/29 07:36:19;;;;;;;;;;;16.90;99.90;;;;;;4948373;28;19933;-64
2023/05/29 07:38:49;;;;;;;;;;;17.00;99.90;;;;;;4949612;29;20009;-64
2023/05/29 07:41:17;;;;;;;;;;;17.20;99.90;;;;;;4946595;28;19925;-64
2023/05/29 07:43:52;;;;;;;;;;;17.30;99.90;;;;;;4947231;28;19930;-63
2023/05/29 07:46:23;;;;;;;;;;;17.40;99.90;;;;;;4966835;28;19926;-63
2023/05/29 07:49:11;;;;;;;;;;;17.60;99.90;;;;;;4950378;28;20009;-64
2023/05/29 07:51:39;;;;;;;;;;;17.70;99.90;;;;;;4951770;28;19934;-63
2023/05/29 07:54:13;;;;;;;;;;;17.90;99.90;;;;;;4950209;28;20213;-63
2023/05/29 07:56:45;;;;;;;;;;;18.00;99.90;;;;;;4939486;28;19985;-64
2023/05/29 07:59:17;;;;;;;;;;;18.10;99.90;;;;;;4928363;28;19933;-64
2023/05/29 08:01:45;;;;;;;;;;;18.20;99.90;;;;;;4953175;28;19974;-63
2023/05/29 08:04:36;;;;;;;;;;;18.40;99.90;;;;;;4964396;28;19934;-63
2023/05/29 08:07:09;;;;;;;;;;;18.50;99.90;;;;;;4930991;28;20017;-63
2023/05/29 08:09:40;;;;;;;;;;;18.60;99.90;;;;;;4964892;28;19926;-63
2023/05/29 08:12:12;;;;;;;;;;;18.70;99.90;;;;;;4963294;28;19933;-64
2023/05/29 08:14:39;;;;;;;;;;;18.90;99.90;;;;;;4949256;28;19926;-64
2023/05/29 08:17:11;;;;;;;;;;;19.00;99.90;;;;;;4948682;28;19934;-64
2023/05/29 08:19:43;;;;;;;;;;;19.00;99.90;;;;;;4966504;28;20390;-64
2023/05/29 08:22:15;;;;;;;;;;;19.10;99.90;;;;;;4962440;28;20928;-64
2023/05/29 08:24:42;;;;;;;;;;;19.20;99.90;;;;;;4961009;28;20465;-64
2023/05/29 08:27:14;;;;;;;;;;;19.30;99.90;;;;;;4962165;28;19930;-64
2023/05/29 08:29:41;;;;;;;;;;;19.50;99.90;;;;;;4964989;28;20064;-64
2023/05/29 08:32:12;;;;;;;;;;;19.60;99.90;;;;;;4969677;28;19969;-63
2023/05/29 08:34:41;;;;;;;;;;;19.70;99.90;;;;;;4968614;28;20370;-64
2023/05/29 08:37:13;;;;;;;;;;;19.80;99.90;;;;;;4965279;28;20424;-64
2023/05/29 08:39:40;;;;;;;;;;;20.00;99.90;;;;;;4966817;28;19961;-64
2023/05/29 08:42:27;;;;;;;;;;;20.10;99.90;;;;;;4949592;28;19926;-64
2023/05/29 08:45:01;;;;;;;;;;;20.20;99.90;;;;;;4947723;28;19927;-64
2023/05/29 08:47:33;;;;;;;;;;;20.40;99.90;;;;;;4942389;28;19949;-64
2023/05/29 08:50:05;;;;;;;;;;;20.50;99.90;;;;;;4949368;28;19926;-64
2023/05/29 08:52:37;;;;;;;;;;;20.60;99.90;;;;;;4952009;28;19969;-65
2023/05/29 08:55:09;;;;;;;;;;;20.70;99.90;;;;;;4957071;28;19927;-65
2023/05/29 08:57:43;;;;;;;;;;;20.80;99.90;;;;;;4957066;28;20024;-65
2023/05/29 09:00:16;;;;;;;;;;;20.90;99.90;;;;;;4965432;28;19930;-65
2023/05/29 09:02:49;;;;;;;;;;;21.10;99.90;;;;;;4946937;28;20417;-65
2023/05/29 09:05:21;;;;;;;;;;;21.20;99.90;;;;;;4946170;28;19981;-65
2023/05/29 09:07:56;;;;;;;;;;;21.30;99.90;;;;;;4964124;28;19926;-65
2023/05/29 09:10:28;;;;;;;;;;;21.40;99.90;;;;;;4957365;28;20034;-65
2023/05/29 09:13:00;;;;;;;;;;;21.50;99.90;;;;;;4957751;28;19930;-65
2023/05/29 09:15:27;;;;;;;;;;;21.60;99.90;;;;;;4970109;28;19990;-65
2023/05/29 09:17:59;;;;;;;;;;;21.60;99.90;;;;;;4968503;28;20301;-65
2023/05/29 09:20:31;;;;;;;;;;;21.70;99.90;;;;;;4968295;28;20005;-65
2023/05/29 09:23:04;;;;;;;;;;;21.70;99.90;;;;;;4955739;28;20426;-64
2023/05/29 09:25:39;;;;;;;;;;;21.80;99.90;;;;;;4963818;28;20462;-65
2023/05/29 09:28:12;;;;;;;;;;;21.90;99.90;;;;;;4944205;28;20364;-65
2023/05/29 09:30:45;;;;;;;;;;;22.00;99.90;;;;;;4942361;28;19933;-65
2023/05/29 09:33:17;;;;;;;;;;;22.10;99.50;;;;;;4960199;28;19926;-64
2023/05/29 09:35:50;;;;;;;;;;;22.20;99.90;;;;;;4953443;28;20008;-65
2023/05/29 09:38:21;;;;;;;;;;;22.20;99.90;;;;;;4963365;28;20315;-65
2023/05/29 09:40:58;;;;;;;;;;;22.30;99.90;;;;;;4956192;28;19932;-65
2023/05/29 09:43:25;;;;;;;;;;;22.40;99.30;;;;;;4966878;28;20421;-65
2023/05/29 09:45:57;;;;;;;;;;;22.40;99.60;;;;;;4956709;28;19984;-65
2023/05/29 09:48:30;;;;;;;;;;;22.60;99.70;;;;;;4969385;28;20395;-64
2023/05/29 09:51:02;;;;;;;;;;;22.70;99.10;;;;;;4964640;28;19930;-64
2023/05/29 09:53:40;;;;;;;;;;;22.80;98.70;;;;;;4970852;28;19926;-64
2023/05/29 09:56:13;;;;;;;;;;;22.90;96.90;;;;;;4953752;28;19938;-65
2023/05/29 09:58:45;;;;;;;;;;;22.90;96.80;;;;;;4968318;28;20295;-65
2023/05/29 10:01:17;;;;;;;;;;;22.90;94.20;;;;;;4962511;28;20412;-64
2023/05/29 10:03:45;;;;;;;;;;;22.90;95.80;;;;;;4965443;28;19934;-65
2023/05/29 10:06:18;;;;;;;;;;;23.10;95.40;;;;;;4964023;28;19933;-65
2023/05/29 10:08:52;;;;;;;;;;;23.10;94.60;;;;;;4966549;28;20035;-64
2023/05/29 10:11:24;;;;;;;;;;;23.20;93.70;;;;;;4954747;28;20399;-65
2023/05/29 10:13:57;;;;;;;;;;;23.20;94.30;;;;;;4965645;28;20398;-65
2023/05/29 10:16:30;;;;;;;;;;;23.30;93.90;;;;;;4967388;28;19926;-65
2023/05/29 10:19:07;;;;;;;;;;;23.40;94.70;;;;;;4951356;28;19930;-65
2023/05/29 10:21:40;;;;;;;;;;;23.50;94.40;;;;;;4948669;28;19930;-65
2023/05/29 10:24:12;;;;;;;;;;;23.50;92.70;;;;;;4961170;28;20307;-65
2023/05/29 10:26:46;;;;;;;;;;;23.40;92.10;;;;;;4946979;28;19927;-65
2023/05/29 10:29:37;;;;;;;;;;;23.30;92.00;;;;;;4961676;28;20388;-65
2023/05/29 10:32:12;;;;;;;;;;;23.30;92.20;;;;;;4954025;28;19934;-65
2023/05/29 10:34:54;;;;;;;;;;;23.20;92.20;;;;;;4963505;28;19976;-65
2023/05/29 10:37:35;;;;;;;;;;;23.30;92.00;;;;;;4963491;28;19932;-65
2023/05/29 10:40:14;;;;;;;;;;;23.40;92.20;;;;;;4965008;28;20383;-65
2023/05/29 10:42:48;;;;;;;;;;;23.60;91.40;;;;;;4955930;28;20465;-65
2023/05/29 10:45:30;;;;;;;;;;;23.60;88.40;;;;;;4945628;28;19926;-65
2023/05/29 10:48:04;;;;;;;;;;;23.70;90.50;;;;;;4964201;28;19977;-65
2023/05/29 10:50:42;;;;;;;;;;;23.70;91.20;;;;;;4962351;28;19930;-65
2023/05/29 10:53:16;;;;;;;;;;;23.80;88.00;;;;;;4949177;28;19961;-65
2023/05/29 10:55:50;;;;;;;;;;;23.90;87.60;;;;;;4945242;28;19972;-65
2023/05/29 10:58:25;;;;;;;;;;;23.90;86.70;;;;;;4965508;28;19936;-65
2023/05/29 11:00:58;;;;;;;;;;;24.00;86.00;;;;;;4952246;28;19931;-65
2023/05/29 11:03:30;;;;;;;;;;;24.00;85.90;;;;;;4970953;28;19936;-65
2023/05/29 11:06:10;;;;;;;;;;;24.00;85.20;;;;;;4950512;28;19957;-65
2023/05/29 11:08:52;;;;;;;;;;;24.10;86.90;;;;;;4968556;28;19965;-65
2023/05/29 11:11:27;;;;;;;;;;;24.20;83.20;;;;;;4963839;28;20305;-66
2023/05/29 11:14:04;;;;;;;;;;;24.30;82.80;;;;;;4956673;28;19984;-65
2023/05/29 11:16:37;;;;;;;;;;;24.40;82.00;;;;;;4941454;28;19938;-65
2023/05/29 11:19:12;;;;;;;;;;;24.50;84.00;;;;;;4958414;28;19934;-65
2023/05/29 11:21:43;;;;;;;;;;;24.60;81.10;;;;;;4959200;28;20398;-65
2023/05/29 11:24:22;;;;;;;;;;;24.70;80.60;;;;;;4952633;28;19927;-65
2023/05/29 11:26:54;;;;;;;;;;;24.70;79.60;;;;;;4966650;28;19926;-66
2023/05/29 11:29:27;;;;;;;;;;;24.50;77.10;;;;;;4964482;28;19962;-65
2023/05/29 11:32:04;;;;;;;;;;;24.50;82.30;;;;;;4963682;28;19990;-65
2023/05/29 11:34:38;;;;;;;;;;;24.70;80.90;;;;;;4962086;28;19926;-65
2023/05/29 11:37:11;;;;;;;;;;;24.60;78.80;;;;;;4958013;28;19930;-65
2023/05/29 11:39:38;;;;;;;;;;;24.80;79.60;;;;;;4957214;28;20417;-65
2023/05/29 11:42:09;;;;;;;;;;;24.90;80.00;;;;;;4952039;28;19927;-65
2023/05/29 11:44:41;;;;;;;;;;;25.10;82.40;;;;;;4941769;28;19927;-66
2023/05/29 11:47:14;;;;;;;;;;;25.20;80.50;;;;;;4963847;28;20735;-66
2023/05/29 11:49:46;;;;;;;;;;;25.40;78.90;;;;;;4953885;28;19926;-66
2023/05/29 11:52:22;;;;;;;;;;;25.50;76.90;;;;;;4968788;28;19933;-65
2023/05/29 11:54:49;;;;;;;;;;;25.60;74.10;;;;;;4950341;28;20018;-65
2023/05/29 11:57:21;;;;;;;;;;;25.40;74.10;;;;;;4966134;28;19930;-65
2023/05/29 11:59:58;;;;;;;;;;;25.30;72.90;;;;;;4946868;28;19961;-65
2023/05/29 12:02:30;;;;;;;;;;;25.40;75.30;;;;;;4944332;28;20387;-65
2023/05/29 12:05:03;;;;;;;;;;;25.50;76.30;;;;;;4964113;28;19926;-65
2023/05/29 12:07:35;;;;;;;;;;;25.50;73.00;;;;;;4961915;28;19926;-66
2023/05/29 12:10:11;;;;;;;;;;;25.50;75.30;;;;;;4967840;28;20025;-65
2023/05/29 12:12:46;;;;;;;;;;;25.60;73.70;;;;;;4947637;28;19941;-65
2023/05/29 12:15:13;;;;;;;;;;;25.50;72.50;;;;;;4968687;28;19936;-66
2023/05/29 12:17:46;;;;;;;;;;;25.60;73.40;;;;;;4967529;28;20372;-66
2023/05/29 12:20:13;;;;;;;;;;;25.70;76.20;;;;;;4971914;28;20484;-65
2023/05/29 12:22:45;;;;;;;;;;;25.80;72.70;;;;;;4954712;28;19926;-66
2023/05/29 12:25:18;;;;;;;;;;;25.90;71.20;;;;;;4943553;28;19927;-65
2023/05/29 12:27:50;;;;;;;;;;;25.90;71.00;;;;;;4960975;28;19933;-66
2023/05/29 12:30:22;;;;;;;;;;;26.00;71.60;;;;;;4956641;28;19936;-66
2023/05/29 12:32:51;;;;;;;;;;;26.20;71.80;;;;;;4953156;28;20402;-65
2023/05/29 12:35:24;;;;;;;;;;;26.40;73.60;;;;;;4972966;28;19934;-66
2023/05/29 12:37:56;;;;;;;;;;;26.30;68.80;;;;;;4969220;28;19937;-66
2023/05/29 12:40:29;;;;;;;;;;;26.40;67.40;;;;;;4966814;28;19933;-65
2023/05/29 12:42:57;;;;;;;;;;;26.40;65.70;;;;;;4966607;28;19954;-65
2023/05/29 12:45:30;;;;;;;;;;;26.30;65.80;;;;;;4967457;28;20019;-65
2023/05/29 12:48:02;;;;;;;;;;;26.20;68.00;;;;;;4955532;28;20009;-66
2023/05/29 12:50:37;;;;;;;;;;;26.30;68.50;;;;;;4962276;28;19973;-66
2023/05/29 12:53:09;;;;;;;;;;;26.40;66.90;;;;;;4971186;28;20310;-66
2023/05/29 12:55:38;;;;;;;;;;;26.50;63.10;;;;;;4971945;28;20627;-66
2023/05/29 12:58:11;;;;;;;;;;;26.60;65.80;;;;;;4965863;28;19933;-66
2023/05/29 13:00:44;;;;;;;;;;;26.80;65.60;;;;;;4968882;28;20020;-65
2023/05/29 13:03:16;;;;;;;;;;;27.00;65.30;;;;;;4956146;28;20421;-66
2023/05/29 13:05:47;;;;;;;;;;;27.00;63.00;;;;;;4969928;28;19937;-66
2023/05/29 13:08:20;;;;;;;;;;;26.90;62.90;;;;;;4970167;28;19926;-66
2023/05/29 13:10:52;;;;;;;;;;;27.10;65.50;;;;;;4971714;28;20428;-66
2023/05/29 13:13:24;;;;;;;;;;;27.30;65.80;;;;;;4939951;28;19969;-66
2023/05/29 13:15:55;;;;;;;;;;;27.30;61.00;;;;;;4968059;28;20020;-66
2023/05/29 13:18:27;;;;;;;;;;;27.40;61.90;;;;;;4953418;28;19935;-66
2023/05/29 13:20:59;;;;;;;;;;;27.30;59.50;;;;;;4949990;28;19926;-66
2023/05/29 13:23:31;;;;;;;;;;;27.30;61.40;;;;;;4966181;28;19933;-66
2023/05/29 13:26:04;;;;;;;;;;;27.30;60.70;;;;;;4970174;28;19930;-66
2023/05/29 13:28:31;;;;;;;;;;;27.30;59.30;;;;;;4973167;28;20402;-66
2023/05/29 13:31:02;;;;;;;;;;;27.30;59.30;;;;;;4952907;28;19930;-66
2023/05/29 13:33:29;;;;;;;;;;;27.30;60.80;;;;;;4953685;28;19989;-66
2023/05/29 13:35:56;;;;;;;;;;;27.60;61.50;;;;;;4972857;28;19930;-66
2023/05/29 13:38:28;;;;;;;;;;;27.40;59.10;;;;;;4949322;28;19933;-66
2023/05/29 13:40:59;;;;;;;;;;;27.30;59.90;;;;;;4966303;28;19932;-65
2023/05/29 13:43:26;;;;;;;;;;;27.40;59.60;;;;;;4951860;28;21259;-66
2023/05/29 13:45:53;;;;;;;;;;;27.50;60.60;;;;;;4967363;28;19926;-65
2023/05/29 13:48:25;;;;;;;;;;;27.60;58.70;;;;;;4968024;28;19930;-66
2023/05/29 13:50:52;;;;;;;;;;;27.70;57.90;;;;;;4965480;28;19927;-66
2023/05/29 13:53:18;;;;;;;;;;;27.70;57.70;;;;;;4972023;28;19977;-65
2023/05/29 13:55:50;;;;;;;;;;;27.60;58.40;;;;;;4970603;28;20008;-66
2023/05/29 13:58:22;;;;;;;;;;;27.90;59.00;;;;;;4970539;28;19986;-66
2023/05/29 14:00:55;;;;;;;;;;;28.00;59.40;;;;;;4951354;28;19930;-66
2023/05/29 14:03:25;;;;;;;;;;;28.10;58.70;;;;;;4965235;28;19965;-65
2023/05/29 14:05:56;;;;;;;;;;;28.40;58.70;;;;;;4965196;28;20376;-66
2023/05/29 14:08:28;;;;;;;;;;;28.40;59.50;;;;;;4944818;28;19930;-65
2023/05/29 14:11:00;;;;;;;;;;;28.70;57.50;;;;;;4941970;28;19932;-66
2023/05/29 14:13:26;;;;;;;;;;;28.80;56.80;;;;;;4961603;28;19930;-65
2023/05/29 14:15:55;;;;;;;;;;;28.70;56.90;;;;;;4962097;28;19937;-65
2023/05/29 14:18:27;;;;;;;;;;;28.60;56.70;;;;;;4962472;28;19950;-66
2023/05/29 14:20:59;;;;;;;;;;;28.90;56.10;;;;;;4947992;28;20012;-66
2023/05/29 14:23:31;;;;;;;;;;;29.00;55.70;;;;;;4966291;28;20417;-66
2023/05/29 14:26:03;;;;;;;;;;;28.90;55.00;;;;;;4954592;28;19926;-66
2023/05/29 14:28:35;;;;;;;;;;;28.90;56.90;;;;;;4930699;28;19938;-66
2023/05/29 14:31:07;;;;;;;;;;;29.00;55.00;;;;;;4960231;28;19930;-66
2023/05/29 14:33:38;;;;;;;;;;;29.10;55.60;;;;;;4965564;28;20424;-65
2023/05/29 14:36:10;;;;;;;;;;;29.40;54.30;;;;;;4952580;28;19936;-68
2023/05/29 14:38:43;;;;;;;;;;;29.40;55.00;;;;;;4946129;28;19934;-68
2023/05/29 14:41:15;;;;;;;;;;;29.30;53.80;;;;;;4960639;28;19927;-68
2023/05/29 14:43:46;;;;;;;;;;;29.20;54.50;;;;;;4953344;28;19937;-68